Time;durP1;ratioP1;P1;durP2;ratioP2;P2;SDS_P1;SDS_P2;PMS_P1;PMS_P2;Temp;Humidity;BMP_temperature;BMP_pressure;BME280_temperature;BME280_humidity;BME280_pressure;Samples;Min_cycle;Max_cycle;Signal;HPM_P1;HPM_P2
2024/04/15 00:01:31;;;;;;;0.70;0.25;;;8.90;1.00;;;;;;5341679;26;20016;-79
2024/04/15 00:03:58;;;;;;;0.73;0.30;;;8.90;1.00;;;;;;5303882;26;20004;-78
2024/04/15 00:06:25;;;;;;;0.60;0.40;;;8.90;1.00;;;;;;5359733;26;20004;-80
2024/04/15 00:08:52;;;;;;;1.13;0.35;;;8.90;1.00;;;;;;5389204;26;20019;-79
2024/04/15 00:11:19;;;;;;;0.68;0.30;;;8.90;1.00;;;;;;5303481;26;20115;-79
2024/04/15 00:13:46;;;;;;;0.90;0.40;;;8.80;1.00;;;;;;5355621;26;20138;-78
2024/04/15 00:16:13;;;;;;;0.20;0.20;;;8.80;1.00;;;;;;5398065;26;20005;-79
2024/04/15 00:18:40;;;;;;;1.55;0.55;;;8.80;1.00;;;;;;5398595;26;20036;-79
2024/04/15 00:21:10;;;;;;;0.63;0.35;;;8.80;1.00;;;;;;5355437;26;20063;-79
2024/04/15 00:23:37;;;;;;;0.80;0.30;;;8.80;1.00;;;;;;5352433;26;20014;-79
2024/04/15 00:26:05;;;;;;;0.35;0.30;;;8.80;1.00;;;;;;5360693;26;20142;-79
2024/04/15 00:28:32;;;;;;;0.43;0.30;;;8.80;1.00;;;;;;5358836;26;20027;-79
2024/04/15 00:30:59;;;;;;;0.38;0.20;;;8.80;1.00;;;;;;5334955;26;20020;-79
2024/04/15 00:33:26;;;;;;;0.60;0.30;;;8.80;1.00;;;;;;5320267;26;20011;-79
2024/04/15 00:35:53;;;;;;;0.20;0.20;;;8.80;1.00;;;;;;5328251;26;20015;-79
2024/04/15 00:38:21;;;;;;;0.20;0.20;;;8.80;1.00;;;;;;5366445;26;20003;-78
2024/04/15 00:40:48;;;;;;;0.10;0.10;;;8.80;1.00;;;;;;5297075;26;20067;-79
2024/04/15 00:43:14;;;;;;;0.30;0.20;;;8.80;1.00;;;;;;5361538;26;20000;-79
2024/04/15 00:45:42;;;;;;;0.22;0.20;;;8.80;1.00;;;;;;5378673;26;20077;-78
2024/04/15 00:48:14;;;;;;;0.57;0.32;;;8.80;1.00;;;;;;5338587;26;20367;-79
2024/04/15 00:50:41;;;;;;;0.30;0.30;;;8.80;1.00;;;;;;5322680;26;20443;-79
2024/04/15 00:53:08;;;;;;;0.70;0.47;;;8.80;1.00;;;;;;5320908;26;20018;-79
2024/04/15 00:55:36;;;;;;;0.65;0.35;;;8.80;1.00;;;;;;5319609;26;20004;-78
2024/04/15 00:58:03;;;;;;;1.50;0.38;;;8.70;1.00;;;;;;5332225;26;20078;-78
2024/04/15 01:00:30;;;;;;;0.25;0.17;;;8.70;1.00;;;;;;5366244;26;20503;-78
2024/04/15 01:02:57;;;;;;;0.30;0.20;;;8.70;1.00;;;;;;5388059;26;20364;-78
2024/04/15 01:05:24;;;;;;;0.10;0.10;;;8.70;1.00;;;;;;5352677;26;20000;-78
2024/04/15 01:07:51;;;;;;;0.47;0.28;;;8.70;1.00;;;;;;5340620;26;20003;-78
2024/04/15 01:10:18;;;;;;;0.10;0.10;;;8.60;1.00;;;;;;5400983;26;20075;-78
2024/04/15 01:12:45;;;;;;;0.20;0.20;;;8.60;1.00;;;;;;5323454;26;20014;-79
2024/04/15 01:15:12;;;;;;;0.70;0.20;;;8.60;1.00;;;;;;5361309;26;20007;-78
2024/04/15 01:17:39;;;;;;;0.60;0.30;;;8.60;1.00;;;;;;5371059;26;20004;-78
2024/04/15 01:20:06;;;;;;;0.10;0.10;;;8.50;1.00;;;;;;5400994;26;20327;-77
2024/04/15 01:22:37;;;;;;;0.22;0.22;;;8.50;1.00;;;;;;5373316;26;20107;-78
2024/04/15 01:25:04;;;;;;;0.30;0.20;;;8.50;1.00;;;;;;5357328;26;20378;-78
2024/04/15 01:27:31;;;;;;;0.45;0.20;;;8.50;1.00;;;;;;5358813;26;20005;-78
2024/04/15 01:29:58;;;;;;;0.20;0.20;;;8.50;1.00;;;;;;5367133;26;20672;-78
2024/04/15 01:32:25;;;;;;;1.25;0.30;;;8.50;1.00;;;;;;5338988;26;20000;-79
2024/04/15 01:34:52;;;;;;;0.30;0.20;;;8.40;1.00;;;;;;5374494;26;20015;-79
2024/04/15 01:37:19;;;;;;;0.20;0.20;;;8.40;1.00;;;;;;5345734;26;20533;-78
2024/04/15 01:39:46;;;;;;;0.28;0.20;;;8.40;1.00;;;;;;5345098;26;20011;-79
2024/04/15 01:42:13;;;;;;;0.10;0.10;;;8.40;1.00;;;;;;5343845;26;19996;-78
2024/04/15 01:44:40;;;;;;;0.25;0.20;;;8.40;1.00;;;;;;5405485;26;20317;-78
2024/04/15 01:47:07;;;;;;;0.20;0.20;;;8.40;1.00;;;;;;5335580;26;20400;-78
2024/04/15 01:49:34;;;;;;;0.73;0.20;;;8.40;1.00;;;;;;5352747;26;20000;-77
2024/04/15 01:52:01;;;;;;;0.60;0.20;;;8.40;1.00;;;;;;5311967;26;20000;-79
2024/04/15 01:54:28;;;;;;;0.38;0.20;;;8.40;1.00;;;;;;5344356;26;20032;-79
2024/04/15 01:56:55;;;;;;;0.30;0.30;;;8.30;1.00;;;;;;5342169;26;20008;-78
2024/04/15 01:59:22;;;;;;;0.60;0.20;;;8.30;1.00;;;;;;5404750;26;19999;-78
2024/04/15 02:01:49;;;;;;;0.20;0.20;;;8.30;1.00;;;;;;5373157;26;20431;-78
2024/04/15 02:04:16;;;;;;;0.38;0.15;;;8.30;1.00;;;;;;5394581;26;20039;-79
2024/04/15 02:06:43;;;;;;;0.10;0.10;;;8.30;1.00;;;;;;5324964;26;20141;-79
2024/04/15 02:09:10;;;;;;;0.10;0.10;;;8.20;1.00;;;;;;5334315;26;20115;-78
2024/04/15 02:11:37;;;;;;;0.50;0.30;;;8.20;1.00;;;;;;5372554;26;20016;-78
2024/04/15 02:14:04;;;;;;;0.45;0.20;;;8.20;1.00;;;;;;5383773;26;20081;-79
2024/04/15 02:16:30;;;;;;;0.15;0.15;;;8.10;1.00;;;;;;5369715;26;20019;-79
2024/04/15 02:18:57;;;;;;;0.20;0.20;;;8.10;1.00;;;;;;5375803;26;20011;-78
2024/04/15 02:21:24;;;;;;;0.30;0.20;;;8.10;1.00;;;;;;5349603;26;20014;-78
2024/04/15 02:23:51;;;;;;;0.57;0.38;;;8.00;1.00;;;;;;5316513;26;20329;-79
2024/04/15 02:26:18;;;;;;;1.10;0.20;;;8.00;1.00;;;;;;5316538;26;20437;-79
2024/04/15 02:28:45;;;;;;;0.32;0.20;;;8.00;1.00;;;;;;5297912;26;20016;-78
2024/04/15 02:31:12;;;;;;;0.25;0.25;;;8.00;1.00;;;;;;5310776;26;20081;-78
2024/04/15 02:33:39;;;;;;;0.17;0.17;;;7.90;1.00;;;;;;5362520;26;20035;-78
2024/04/15 02:36:06;;;;;;;0.40;0.20;;;7.90;1.00;;;;;;5340134;26;20280;-79
2024/04/15 02:38:33;;;;;;;0.10;0.10;;;7.90;1.00;;;;;;5290972;26;20010;-79
2024/04/15 02:41:00;;;;;;;0.17;0.17;;;7.90;1.00;;;;;;5288858;26;20040;-79
2024/04/15 02:43:27;;;;;;;0.40;0.25;;;7.90;1.00;;;;;;5310126;26;20946;-78
2024/04/15 02:45:54;;;;;;;0.40;0.20;;;7.80;1.00;;;;;;5339160;26;20081;-78
2024/04/15 02:48:21;;;;;;;0.22;0.20;;;7.80;1.00;;;;;;5341515;26;20069;-78
2024/04/15 02:50:48;;;;;;;0.20;0.20;;;7.80;1.00;;;;;;5372433;26;20020;-78
2024/04/15 02:53:15;;;;;;;0.22;0.22;;;7.80;1.00;;;;;;5342806;26;20401;-78
2024/04/15 02:55:42;;;;;;;0.20;0.20;;;7.80;1.00;;;;;;5342321;26;20088;-79
2024/04/15 02:58:09;;;;;;;0.15;0.15;;;7.80;1.00;;;;;;5404267;26;20097;-78
2024/04/15 03:00:36;;;;;;;0.10;0.10;;;7.80;1.00;;;;;;5335568;26;20020;-78
2024/04/15 03:03:03;;;;;;;0.32;0.20;;;7.80;1.00;;;;;;5325698;26;20000;-78
2024/04/15 03:05:30;;;;;;;0.20;0.20;;;7.80;1.00;;;;;;5316832;26;20019;-78
2024/04/15 03:07:57;;;;;;;0.20;0.20;;;7.90;1.00;;;;;;5344454;26;20015;-78
2024/04/15 03:10:27;;;;;;;0.52;0.30;;;7.90;1.00;;;;;;5317716;26;20020;-78
2024/04/15 03:12:55;;;;;;;0.35;0.25;;;7.90;1.00;;;;;;5392662;26;20018;-77
2024/04/15 03:15:22;;;;;;;0.10;0.10;;;8.00;1.00;;;;;;5324105;26;20003;-79
2024/04/15 03:17:50;;;;;;;0.63;0.30;;;8.10;1.00;;;;;;5344643;26;20004;-78
2024/04/15 03:20:17;;;;;;;0.20;0.20;;;8.10;1.00;;;;;;5345195;26;20016;-79
2024/04/15 03:22:50;;;;;;;0.43;0.30;;;8.20;1.00;;;;;;5373009;26;20015;-79
2024/04/15 03:25:20;;;;;;;0.40;0.20;;;8.20;1.00;;;;;;5373227;26;19996;-78
2024/04/15 03:27:48;;;;;;;1.13;0.43;;;8.20;1.00;;;;;;5316811;26;20000;-79
2024/04/15 03:30:15;;;;;;;0.20;0.20;;;8.30;1.00;;;;;;5344516;26;20018;-79
2024/04/15 03:32:42;;;;;;;1.90;0.40;;;8.30;1.00;;;;;;5403896;26;19995;-79
2024/04/15 03:35:15;;;;;;;0.65;0.20;;;8.30;1.00;;;;;;5373250;26;20037;-78
2024/04/15 03:37:42;;;;;;;0.22;0.20;;;8.30;1.00;;;;;;5403636;26;19996;-78
2024/04/15 03:40:10;;;;;;;0.32;0.32;;;8.40;1.00;;;;;;5315352;26;20453;-78
2024/04/15 03:42:37;;;;;;;0.50;0.30;;;8.40;1.00;;;;;;5360944;26;20033;-78
2024/04/15 03:45:04;;;;;;;0.70;0.30;;;8.40;1.00;;;;;;5316321;26;20014;-78
2024/04/15 03:47:31;;;;;;;0.43;0.22;;;8.40;1.00;;;;;;5315673;26;20076;-78
2024/04/15 03:49:58;;;;;;;0.50;0.38;;;8.40;1.00;;;;;;5335860;26;20003;-78
2024/04/15 03:52:25;;;;;;;0.28;0.17;;;8.40;1.00;;;;;;5372460;26;20031;-79
2024/04/15 03:54:52;;;;;;;0.57;0.20;;;8.40;1.00;;;;;;5371083;26;20794;-78
2024/04/15 03:57:19;;;;;;;0.30;0.20;;;8.40;1.00;;;;;;5369772;26;20019;-79
2024/04/15 03:59:46;;;;;;;0.90;0.60;;;8.40;1.00;;;;;;5333138;26;20327;-79
2024/04/15 04:02:12;;;;;;;0.40;0.30;;;8.30;1.00;;;;;;5342561;26;20088;-78
2024/04/15 04:04:40;;;;;;;0.85;0.28;;;8.30;1.00;;;;;;5359311;26;20415;-79
2024/04/15 04:07:07;;;;;;;0.57;0.20;;;8.30;1.00;;;;;;5368337;26;20012;-79
2024/04/15 04:09:35;;;;;;;0.55;0.30;;;8.30;1.00;;;;;;5333247;26;20004;-79
2024/04/15 04:12:02;;;;;;;0.47;0.32;;;8.30;1.00;;;;;;5403839;26;20011;-79
2024/04/15 04:14:29;;;;;;;0.40;0.30;;;8.30;1.00;;;;;;5371544;26;20475;-80
2024/04/15 04:16:56;;;;;;;0.22;0.10;;;8.30;1.00;;;;;;5403014;26;19995;-79
2024/04/15 04:19:25;;;;;;;0.52;0.30;;;8.30;1.00;;;;;;5372007;26;20455;-78
2024/04/15 04:21:52;;;;;;;0.60;0.32;;;8.30;1.00;;;;;;5343928;26;20007;-79
2024/04/15 04:24:19;;;;;;;0.38;0.30;;;8.40;76.50;;;;;;5370368;26;20051;-79
2024/04/15 04:26:46;;;;;;;1.45;0.60;;;8.40;55.40;;;;;;5322724;26;20016;-78
2024/04/15 04:29:13;;;;;;;1.65;0.40;;;8.40;98.20;;;;;;5374852;26;20439;-79
2024/04/15 04:31:40;;;;;;;0.47;0.35;;;8.40;99.90;;;;;;5332050;26;19997;-78
2024/04/15 04:34:06;;;;;;;1.20;0.52;;;8.40;99.90;;;;;;5360335;26;20408;-78
2024/04/15 04:36:33;;;;;;;0.60;0.40;;;8.50;99.90;;;;;;5336052;26;20060;-79
2024/04/15 04:39:00;;;;;;;0.57;0.25;;;8.50;99.90;;;;;;5397991;26;20000;-78
2024/04/15 04:41:28;;;;;;;0.90;0.50;;;8.50;99.90;;;;;;5394430;26;20607;-78
2024/04/15 04:43:55;;;;;;;0.30;0.20;;;8.50;99.90;;;;;;5366068;26;20000;-78
2024/04/15 04:46:22;;;;;;;0.20;0.20;;;8.50;99.90;;;;;;5317596;26;20494;-79
2024/04/15 04:48:50;;;;;;;1.27;0.28;;;8.60;99.90;;;;;;5292510;26;20451;-79
2024/04/15 04:51:17;;;;;;;0.88;0.35;;;8.60;99.90;;;;;;5385951;26;20094;-78
2024/04/15 04:53:45;;;;;;;0.85;0.40;;;8.60;99.90;;;;;;5356454;26;20016;-78
2024/04/15 04:56:13;;;;;;;0.43;0.22;;;8.60;99.90;;;;;;5309082;26;20020;-78
2024/04/15 04:58:41;;;;;;;0.63;0.30;;;8.70;99.90;;;;;;5365359;26;20066;-78
2024/04/15 05:01:11;;;;;;;1.30;0.40;;;8.70;99.90;;;;;;5297866;26;20073;-79
2024/04/15 05:03:48;;;;;;;1.27;0.30;;;8.80;99.90;;;;;;5356748;26;20027;-80
2024/04/15 05:06:17;;;;;;;1.63;0.40;;;8.80;99.90;;;;;;5335507;26;20376;-79
2024/04/15 05:08:44;;;;;;;1.20;0.40;;;8.90;99.90;;;;;;5312689;26;20147;-79
2024/04/15 05:11:11;;;;;;;0.20;0.20;;;8.90;99.90;;;;;;5285302;26;20583;-79
2024/04/15 05:13:39;;;;;;;0.90;0.35;;;9.00;99.90;;;;;;5301588;26;20010;-79
2024/04/15 05:16:10;;;;;;;0.30;0.20;;;9.00;99.90;;;;;;5365721;26;20000;-79
2024/04/15 05:18:38;;;;;;;0.75;0.30;;;9.00;99.90;;;;;;5367008;26;20487;-79
2024/04/15 05:21:10;;;;;;;0.25;0.25;;;9.10;99.90;;;;;;5337162;26;20410;-78
2024/04/15 05:23:37;;;;;;;0.43;0.20;;;9.10;99.90;;;;;;5338018;26;20003;-78
2024/04/15 05:26:04;;;;;;;0.28;0.17;;;9.20;99.90;;;;;;5336875;26;20442;-79
2024/04/15 05:28:31;;;;;;;0.57;0.20;;;9.20;99.90;;;;;;5357569;26;20008;-78
2024/04/15 05:30:58;;;;;;;0.80;0.25;;;9.30;99.90;;;;;;5356109;26;20006;-78
2024/04/15 05:33:25;;;;;;;0.98;0.30;;;9.30;99.90;;;;;;5298006;26;20508;-75
2024/04/15 05:35:52;;;;;;;0.43;0.30;;;9.40;99.90;;;;;;5362194;26;20019;-78
2024/04/15 05:38:19;;;;;;;0.95;0.40;;;9.40;99.90;;;;;;5341022;26;20186;-78
2024/04/15 05:40:46;;;;;;;0.68;0.30;;;9.50;99.90;;;;;;5321283;26;20274;-77
2024/04/15 05:43:13;;;;;;;0.85;0.30;;;9.50;99.90;;;;;;5352677;26;20010;-77
2024/04/15 05:45:41;;;;;;;1.42;0.40;;;9.60;99.90;;;;;;5369989;26;20081;-77
2024/04/15 05:48:08;;;;;;;0.52;0.30;;;9.60;99.90;;;;;;5273224;26;20009;-78
2024/04/15 05:50:35;;;;;;;2.65;0.70;;;9.60;99.90;;;;;;5348859;26;20075;-78
2024/04/15 05:53:02;;;;;;;1.30;0.52;;;9.70;99.90;;;;;;5301183;26;20001;-78
2024/04/15 05:55:29;;;;;;;0.75;0.30;;;9.70;99.90;;;;;;5351557;26;20020;-78
2024/04/15 05:57:56;;;;;;;0.80;0.45;;;9.80;99.90;;;;;;5311534;26;20056;-78
2024/04/15 06:00:23;;;;;;;1.65;0.30;;;9.80;99.90;;;;;;5347794;26;20073;-78
2024/04/15 06:02:50;;;;;;;0.47;0.25;;;9.90;99.90;;;;;;5343865;26;20000;-78
2024/04/15 06:05:19;;;;;;;0.40;0.20;;;9.90;99.90;;;;;;5367067;26;20025;-77
2024/04/15 06:07:46;;;;;;;0.68;0.40;;;10.00;99.90;;;;;;5336358;26;20055;-77
2024/04/15 06:10:13;;;;;;;0.38;0.25;;;10.00;99.90;;;;;;5331667;26;20116;-78
2024/04/15 06:12:41;;;;;;;2.33;0.40;;;10.00;99.90;;;;;;5350653;26;20013;-78
2024/04/15 06:15:07;;;;;;;0.77;0.30;;;10.10;99.90;;;;;;5358305;26;20069;-80
2024/04/15 06:17:34;;;;;;;1.25;0.70;;;10.10;99.90;;;;;;5400141;26;20031;-79
2024/04/15 06:20:02;;;;;;;0.30;0.30;;;10.20;99.90;;;;;;5370756;26;20459;-79
2024/04/15 06:22:29;;;;;;;0.30;0.30;;;10.30;99.90;;;;;;5312149;26;20515;-79
2024/04/15 06:24:56;;;;;;;0.57;0.40;;;10.30;99.90;;;;;;5364542;26;20008;-80
2024/04/15 06:27:23;;;;;;;0.75;0.63;;;10.40;99.90;;;;;;5334073;26;20001;-80
2024/04/15 06:29:50;;;;;;;0.20;0.20;;;10.50;99.90;;;;;;5364713;26;20637;-79
2024/04/15 06:32:17;;;;;;;1.15;0.30;;;10.50;99.90;;;;;;5366336;26;20340;-80
2024/04/15 06:34:44;;;;;;;0.45;0.20;;;10.60;99.90;;;;;;5369472;26;20004;-79
2024/04/15 06:37:11;;;;;;;0.28;0.20;;;10.60;99.90;;;;;;5340651;26;20054;-80
2024/04/15 06:39:38;;;;;;;0.65;0.30;;;10.60;99.90;;;;;;5368205;26;20003;-79
2024/04/15 06:42:05;;;;;;;0.30;0.20;;;10.60;99.90;;;;;;5368915;26;20077;-80
2024/04/15 06:44:33;;;;;;;1.00;0.30;;;10.70;99.90;;;;;;5400618;26;19995;-79
2024/04/15 06:47:00;;;;;;;0.95;0.35;;;10.70;99.90;;;;;;5398868;26;20035;-79
2024/04/15 06:49:27;;;;;;;0.40;0.40;;;10.70;99.90;;;;;;5355101;26;20387;-79
2024/04/15 06:51:54;;;;;;;1.10;0.40;;;10.70;99.90;;;;;;5337875;26;20055;-79
2024/04/15 06:54:21;;;;;;;0.93;0.40;;;10.80;99.90;;;;;;5330165;26;20008;-80
2024/04/15 06:56:48;;;;;;;0.57;0.40;;;10.80;99.90;;;;;;5368566;26;19996;-79
2024/04/15 06:59:15;;;;;;;0.57;0.30;;;10.90;99.90;;;;;;5397644;26;20003;-79
2024/04/15 07:01:42;;;;;;;0.80;0.47;;;11.00;99.90;;;;;;5338145;26;20004;-80
2024/04/15 07:04:13;;;;;;;2.10;0.80;;;11.00;99.90;;;;;;5389360;26;20000;-87
2024/04/15 07:06:40;;;;;;;0.68;0.30;;;11.10;99.90;;;;;;5325748;26;20028;-81
2024/04/15 07:09:10;;;;;;;2.40;0.60;;;11.10;99.90;;;;;;5307254;26;19996;-81
2024/04/15 07:11:37;;;;;;;1.23;0.38;;;11.20;99.90;;;;;;5372618;26;20011;-80
2024/04/15 07:14:04;;;;;;;0.47;0.30;;;11.20;99.90;;;;;;5354374;26;19996;-81
2024/04/15 07:16:31;;;;;;;0.77;0.43;;;11.20;99.90;;;;;;5364266;26;20019;-80
2024/04/15 07:18:58;;;;;;;1.23;0.55;;;11.20;99.90;;;;;;5364786;26;19996;-81
2024/04/15 07:21:25;;;;;;;1.75;0.60;;;11.30;99.90;;;;;;5363792;26;20014;-81
2024/04/15 07:23:52;;;;;;;1.08;0.50;;;11.40;99.90;;;;;;5355270;26;20138;-82
2024/04/15 07:26:19;;;;;;;0.95;0.43;;;11.50;99.90;;;;;;5373640;26;20010;-80
2024/04/15 07:28:46;;;;;;;1.35;0.57;;;11.60;99.90;;;;;;5375041;26;20071;-81
2024/04/15 07:31:13;;;;;;;0.82;0.47;;;11.60;99.90;;;;;;5348488;26;20012;-81
2024/04/15 07:33:40;;;;;;;1.70;0.77;;;11.60;99.90;;;;;;5320816;26;20436;-80
2024/04/15 07:36:08;;;;;;;1.80;0.75;;;11.70;99.90;;;;;;5305741;26;20416;-80
2024/04/15 07:38:35;;;;;;;1.17;0.60;;;11.70;99.90;;;;;;5359714;26;20549;-82
2024/04/15 07:41:02;;;;;;;1.42;0.60;;;11.80;99.90;;;;;;5307013;26;20339;-81
2024/04/15 07:43:29;;;;;;;1.25;0.50;;;11.90;99.90;;;;;;5386818;26;20031;-80
2024/04/15 07:45:57;;;;;;;1.83;0.70;;;11.90;99.90;;;;;;5356558;26;20004;-81
2024/04/15 07:48:24;;;;;;;0.95;0.47;;;12.00;99.90;;;;;;5344857;26;20010;-82
2024/04/15 07:50:51;;;;;;;2.95;0.77;;;12.20;99.90;;;;;;5351916;26;20011;-82
2024/04/15 07:53:18;;;;;;;1.80;0.70;;;12.30;99.90;;;;;;5353311;26;20177;-82
2024/04/15 07:55:45;;;;;;;1.60;0.77;;;12.30;99.90;;;;;;5327543;26;20004;-81
2024/04/15 07:58:12;;;;;;;2.50;1.02;;;12.40;99.90;;;;;;5365106;26;20000;-81
2024/04/15 08:00:39;;;;;;;2.45;0.80;;;12.50;99.90;;;;;;5344873;26;20725;-80
2024/04/15 08:03:06;;;;;;;2.75;0.80;;;12.50;99.90;;;;;;5350735;26;20520;-82
2024/04/15 08:05:33;;;;;;;2.80;0.90;;;12.50;99.90;;;;;;5351858;26;20918;-82
2024/04/15 08:08:00;;;;;;;1.65;0.55;;;12.50;99.90;;;;;;5333024;26;20003;-81
2024/04/15 08:10:27;;;;;;;2.30;0.70;;;12.50;99.90;;;;;;5336750;26;20020;-80
2024/04/15 08:12:54;;;;;;;2.78;0.80;;;12.50;99.90;;;;;;5364068;26;20470;-80
2024/04/15 08:15:21;;;;;;;2.20;0.52;;;12.60;99.90;;;;;;5349826;26;20004;-81
2024/04/15 08:17:48;;;;;;;0.75;0.45;;;12.70;99.90;;;;;;5361013;26;20000;-81
2024/04/15 08:20:15;;;;;;;3.67;1.02;;;12.70;99.90;;;;;;5342083;26;20040;-81
2024/04/15 08:22:44;;;;;;;1.65;0.47;;;12.60;99.90;;;;;;5396858;26;20007;-82
2024/04/15 08:25:11;;;;;;;1.30;0.68;;;12.60;99.90;;;;;;5347148;26;20019;-82
2024/04/15 08:27:39;;;;;;;0.38;0.30;;;12.60;99.90;;;;;;5362571;26;20431;-81
2024/04/15 08:30:07;;;;;;;1.63;0.60;;;12.60;99.90;;;;;;5372098;26;20015;-81
2024/04/15 08:32:34;;;;;;;1.83;0.95;;;12.50;99.90;;;;;;5319415;26;20333;-81
2024/04/15 08:35:02;;;;;;;1.95;0.73;;;12.40;99.90;;;;;;5358735;26;20019;-81
2024/04/15 08:37:29;;;;;;;0.55;0.30;;;12.30;99.90;;;;;;5324882;26;20012;-81
2024/04/15 08:39:56;;;;;;;0.93;0.52;;;12.10;99.90;;;;;;5302633;26;20049;-80
2024/04/15 08:43:02;;;;;;;1.95;0.70;;;11.90;99.90;;;;;;5397161;26;20011;-80
2024/04/15 08:45:30;;;;;;;1.20;0.40;;;11.50;99.90;;;;;;5270443;26;20001;-80
2024/04/15 08:47:58;;;;;;;1.88;0.90;;;11.40;99.90;;;;;;5248837;26;20083;-80
2024/04/15 08:50:25;;;;;;;1.05;0.60;;;11.20;99.90;;;;;;5295175;26;20007;-81
2024/04/15 08:52:53;;;;;;;1.13;0.47;;;11.10;99.90;;;;;;5334139;26;20004;-80
2024/04/15 08:55:21;;;;;;;1.17;0.40;;;11.00;99.90;;;;;;5282712;26;19997;-82
2024/04/15 08:57:49;;;;;;;1.15;0.45;;;10.80;99.90;;;;;;5353298;26;20008;-83
2024/04/15 09:00:18;;;;;;;1.30;0.60;;;10.50;99.90;;;;;;5329428;26;19995;-83
2024/04/15 09:02:46;;;;;;;1.90;0.55;;;10.20;99.90;;;;;;5317640;26;20003;-84
2024/04/15 09:05:13;;;;;;;1.00;0.50;;;9.90;99.90;;;;;;5313919;26;19996;-83
2024/04/15 09:07:40;;;;;;;1.38;0.65;;;9.60;99.90;;;;;;5389585;26;20015;-82
2024/04/15 09:10:07;;;;;;;2.30;0.70;;;9.40;99.90;;;;;;5332460;26;20077;-82
2024/04/15 09:12:38;;;;;;;0.93;0.35;;;9.20;99.90;;;;;;5357807;26;20007;-82
2024/04/15 09:15:05;;;;;;;1.85;0.65;;;9.00;99.90;;;;;;5311571;26;20363;-81
2024/04/15 09:17:32;;;;;;;2.13;0.52;;;8.30;99.90;;;;;;5342675;26;20003;-82
2024/04/15 09:20:00;;;;;;;0.88;0.70;;;7.90;99.90;;;;;;5370169;26;20008;-81
2024/04/15 09:22:30;;;;;;;0.73;0.40;;;7.60;99.90;;;;;;5366007;26;20664;-80
2024/04/15 09:24:57;;;;;;;0.98;0.30;;;7.60;99.90;;;;;;5335583;26;19996;-80
2024/04/15 09:27:25;;;;;;;0.73;0.40;;;7.60;99.90;;;;;;5370622;26;19999;-82
2024/04/15 09:29:52;;;;;;;0.28;0.15;;;7.60;99.90;;;;;;5341948;26;20000;-82
2024/04/15 09:32:19;;;;;;;0.20;0.20;;;7.60;99.90;;;;;;5340752;26;20528;-81
2024/04/15 09:34:47;;;;;;;0.10;0.10;;;7.80;99.90;;;;;;5344865;26;20073;-81
2024/04/15 09:37:14;;;;;;;1.13;0.50;;;7.90;99.90;;;;;;5374121;26;19999;-81
2024/04/15 09:39:41;;;;;;;0.57;0.40;;;8.00;99.90;;;;;;5373517;26;20470;-82
2024/04/15 09:42:08;;;;;;;0.50;0.30;;;8.00;99.90;;;;;;5315968;26;20051;-81
2024/04/15 09:44:35;;;;;;;0.50;0.20;;;8.10;99.90;;;;;;5312868;26;20004;-82
2024/04/15 09:47:05;;;;;;;0.20;0.20;;;8.10;99.90;;;;;;5342573;26;20035;-81
2024/04/15 09:49:32;;;;;;;0.10;0.10;;;8.30;99.90;;;;;;5337066;26;20008;-81
2024/04/15 09:52:06;;;;;;;0.22;0.13;;;8.40;99.90;;;;;;5370606;26;19999;-81
2024/04/15 09:54:35;;;;;;;0.20;0.20;;;8.30;99.90;;;;;;5344712;26;20015;-81
2024/04/15 09:57:12;;;;;;;0.20;0.20;;;8.30;99.90;;;;;;5316172;26;20440;-81
2024/04/15 09:59:39;;;;;;;0.63;0.30;;;8.40;99.90;;;;;;5345711;26;20039;-82
2024/04/15 10:02:28;;;;;;;0.15;0.13;;;8.40;99.90;;;;;;5344727;26;20000;-81
2024/04/15 10:04:59;;;;;;;0.10;0.10;;;8.40;99.90;;;;;;5404889;26;20451;-80
2024/04/15 10:07:27;;;;;;;0.30;0.20;;;8.30;99.90;;;;;;5373658;26;20004;-81
2024/04/15 10:09:54;;;;;;;0.25;0.20;;;8.30;99.90;;;;;;5343928;26;20725;-81
2024/04/15 10:12:21;;;;;;;0.55;0.32;;;8.40;99.90;;;;;;5369686;26;20010;-81
2024/04/15 10:14:50;;;;;;;0.73;0.30;;;8.50;99.90;;;;;;5341289;26;19999;-81
2024/04/15 10:17:24;;;;;;;0.20;0.20;;;8.60;99.90;;;;;;5373171;26;20079;-82
2024/04/15 10:19:51;;;;;;;0.90;0.40;;;8.90;99.90;;;;;;5343468;26;20000;-81
2024/04/15 10:22:18;;;;;;;0.30;0.30;;;9.20;99.90;;;;;;5368018;26;20019;-81
2024/04/15 10:24:45;;;;;;;0.75;0.30;;;9.40;99.90;;;;;;5368340;26;20008;-81
2024/04/15 10:27:13;;;;;;;0.40;0.30;;;9.60;99.90;;;;;;5369252;26;20000;-81
2024/04/15 10:29:40;;;;;;;0.50;0.30;;;9.80;99.90;;;;;;5340927;26;20000;-81
2024/04/15 10:32:07;;;;;;;0.70;0.38;;;9.90;99.90;;;;;;5343528;26;20053;-81
2024/04/15 10:34:40;;;;;;;0.50;0.30;;;9.90;99.90;;;;;;5402242;26;20003;-81
2024/04/15 10:37:14;;;;;;;0.75;0.40;;;10.10;99.90;;;;;;5368169;26;20015;-80
2024/04/15 10:39:45;;;;;;;1.42;0.50;;;10.30;99.90;;;;;;5370410;26;20076;-80
2024/04/15 10:42:12;;;;;;;1.05;0.40;;;10.10;99.90;;;;;;5343886;26;19999;-81
2024/04/15 10:44:39;;;;;;;0.95;0.40;;;10.20;99.90;;;;;;5344293;26;20011;-80
2024/04/15 10:47:06;;;;;;;1.05;0.50;;;10.40;99.90;;;;;;5343839;26;20046;-81
2024/04/15 10:49:34;;;;;;;1.60;0.40;;;10.60;99.90;;;;;;5373139;26;20699;-81
2024/04/15 10:52:01;;;;;;;2.90;0.55;;;10.80;99.90;;;;;;5342159;26;20007;-81
2024/04/15 10:54:28;;;;;;;2.83;0.75;;;11.10;99.90;;;;;;5401907;26;20019;-80
2024/04/15 10:56:55;;;;;;;1.15;0.52;;;11.40;99.90;;;;;;5404161;26;20000;-81
2024/04/15 10:59:22;;;;;;;1.00;0.65;;;11.40;99.90;;;;;;5373491;26;20015;-81
2024/04/15 11:01:49;;;;;;;0.80;0.40;;;11.50;99.90;;;;;;5344111;26;20076;-81
2024/04/15 11:04:16;;;;;;;0.95;0.60;;;11.80;99.90;;;;;;5314912;26;20004;-81
2024/04/15 11:06:47;;;;;;;1.63;0.73;;;12.10;99.90;;;;;;5315040;26;19999;-83
2024/04/15 11:09:14;;;;;;;1.45;0.70;;;12.20;99.90;;;;;;5372173;26;20004;-81
2024/04/15 11:11:41;;;;;;;0.98;0.35;;;12.20;99.90;;;;;;5315158;26;20010;-81
2024/04/15 11:14:11;;;;;;;1.38;0.73;;;12.20;99.90;;;;;;5314684;26;20128;-81
2024/04/15 11:16:48;;;;;;;2.25;0.60;;;12.30;98.80;;;;;;5315523;26;20010;-81
2024/04/15 11:19:16;;;;;;;2.60;0.60;;;12.20;97.80;;;;;;5370133;26;20076;-81
2024/04/15 11:21:43;;;;;;;2.10;0.52;;;12.20;96.70;;;;;;5368114;26;20043;-82
2024/04/15 11:24:11;;;;;;;1.08;0.50;;;12.30;98.20;;;;;;5368772;26;20032;-81
2024/04/15 11:26:39;;;;;;;2.08;0.63;;;12.40;97.70;;;;;;5310638;26;20089;-81
2024/04/15 11:29:06;;;;;;;0.98;0.50;;;12.50;97.10;;;;;;5314291;26;20044;-81
2024/04/15 11:31:34;;;;;;;2.55;0.85;;;12.60;1.00;;;;;;5372717;26;20339;-81
2024/04/15 11:34:02;;;;;;;1.52;0.50;;;12.60;1.00;;;;;;5343763;26;20011;-82
2024/04/15 11:36:30;;;;;;;2.35;0.88;;;12.60;1.00;;;;;;5314102;26;20097;-81
2024/04/15 11:38:58;;;;;;;1.23;0.60;;;12.40;1.00;;;;;;5343759;26;20319;-80
2024/04/15 11:41:26;;;;;;;1.15;0.68;;;12.40;1.00;;;;;;5336570;26;20817;-79
2024/04/15 11:43:53;;;;;;;1.05;0.70;;;12.50;1.00;;;;;;5330404;26;20077;-80
2024/04/15 11:46:20;;;;;;;2.55;0.80;;;12.60;1.00;;;;;;5337060;26;20080;-79
2024/04/15 11:48:48;;;;;;;2.38;1.00;;;12.60;1.00;;;;;;5337822;26;20000;-80
2024/04/15 11:51:19;;;;;;;1.08;0.60;;;13.00;1.00;;;;;;5349980;26;20014;-80
2024/04/15 11:53:46;;;;;;;2.58;0.93;;;12.90;1.00;;;;;;5349440;26;20076;-80
2024/04/15 11:56:13;;;;;;;2.88;0.90;;;13.00;1.00;;;;;;5366031;26;20503;-80
2024/04/15 11:58:44;;;;;;;1.10;0.50;;;13.40;1.00;;;;;;5329902;26;20004;-81
2024/04/15 12:01:11;;;;;;;1.65;0.65;;;13.50;1.00;;;;;;5316108;26;20089;-80
2024/04/15 12:03:39;;;;;;;1.63;1.00;;;13.60;1.00;;;;;;5334490;26;20618;-79
2024/04/15 12:06:06;;;;;;;1.83;0.70;;;13.60;1.00;;;;;;5379632;26;20122;-79
2024/04/15 12:08:37;;;;;;;2.25;0.95;;;13.70;1.00;;;;;;5371530;26;20004;-80
2024/04/15 12:11:07;;;;;;;2.00;0.90;;;13.40;1.00;;;;;;5394873;26;20072;-80
2024/04/15 12:13:34;;;;;;;2.30;0.85;;;12.90;1.00;;;;;;5367657;26;20080;-80
2024/04/15 12:16:01;;;;;;;2.25;0.80;;;13.10;1.00;;;;;;5394273;26;20105;-80
2024/04/15 12:18:28;;;;;;;2.10;0.90;;;13.30;1.00;;;;;;5393657;26;20566;-80
2024/04/15 12:20:55;;;;;;;1.20;0.73;;;13.90;1.00;;;;;;5393168;26;20080;-80
2024/04/15 12:23:22;;;;;;;2.35;0.80;;;13.80;1.00;;;;;;5384127;26;20098;-80
2024/04/15 12:25:49;;;;;;;2.00;1.00;;;13.50;1.00;;;;;;5394317;26;20003;-80
2024/04/15 12:28:16;;;;;;;2.28;0.90;;;14.00;1.00;;;;;;5357494;26;20065;-80
2024/04/15 12:30:43;;;;;;;2.65;0.70;;;14.20;1.00;;;;;;5363187;26;20003;-80
2024/04/15 12:33:11;;;;;;;2.60;0.70;;;13.70;1.00;;;;;;5391018;26;20519;-79
2024/04/15 12:35:38;;;;;;;2.97;0.80;;;13.70;1.00;;;;;;5382051;26;20133;-78
2024/04/15 12:38:05;;;;;;;3.72;1.20;;;13.50;1.00;;;;;;5330374;26;20417;-79
2024/04/15 12:40:32;;;;;;;1.20;0.70;;;13.40;1.00;;;;;;5362795;26;20314;-79
2024/04/15 12:42:59;;;;;;;2.85;1.15;;;14.10;1.00;;;;;;5367472;26;20015;-77
2024/04/15 12:45:26;;;;;;;3.53;1.08;;;14.50;1.00;;;;;;5380530;26;20023;-79
